createdAt,value
2022-08-10T00:01:01.949Z,96426.63
2022-08-10T00:03:28.438Z,96425.78
2022-08-10T00:05:56.586Z,96431.91
2022-08-10T00:08:25.212Z,96426.63
2022-08-10T00:10:52.452Z,96419.66
2022-08-10T00:13:18.853Z,96423.28
2022-08-10T00:15:53.409Z,96424.94
2022-08-10T00:18:35.249Z,96422.44
2022-08-10T00:21:07.041Z,96423.28
2022-08-10T00:23:33.916Z,96418.00
2022-08-10T00:26:00.819Z,96420.75
2022-08-10T00:28:27.632Z,96422.56
2022-08-10T00:30:54.097Z,96419.09
2022-08-10T00:33:20.986Z,96414.63
2022-08-10T00:35:47.659Z,96409.34
2022-08-10T00:38:14.072Z,96407.69
2022-08-10T00:40:40.506Z,96403.25
2022-08-10T00:43:07.135Z,96409.63
2022-08-10T00:45:34.091Z,96406.00
2022-08-10T00:48:00.491Z,96395.44
2022-08-10T00:50:27.360Z,96399.06
2022-08-10T00:52:53.897Z,96395.56
2022-08-10T00:55:20.861Z,96399.06
2022-08-10T00:57:55.205Z,96393.78
2022-08-10T01:00:22.068Z,96386.81
2022-08-10T01:02:48.527Z,96385.13
2022-08-10T01:05:15.260Z,96394.75
2022-08-10T01:07:41.646Z,96381.53
2022-08-10T01:10:13.854Z,96379.84
2022-08-10T01:12:55.470Z,96385.13
2022-08-10T01:15:34.223Z,96387.75
2022-08-10T01:18:03.052Z,96388.75
2022-08-10T01:20:33.875Z,96387.06
2022-08-10T01:23:19.034Z,96387.06
2022-08-10T01:26:10.573Z,96381.78
2022-08-10T01:28:51.619Z,96380.94
2022-08-10T01:31:21.332Z,96386.22
2022-08-10T01:33:59.120Z,96384.56
2022-08-10T01:36:32.472Z,96386.22
2022-08-10T01:39:01.726Z,96378.41
2022-08-10T01:41:46.942Z,96389.00
2022-08-10T01:44:15.159Z,96377.59
2022-08-10T01:46:47.165Z,96376.75
2022-08-10T01:49:14.396Z,96386.34
2022-08-10T01:51:43.882Z,96391.75
2022-08-10T01:54:13.377Z,96393.56
2022-08-10T01:56:45.898Z,96390.94
2022-08-10T01:59:14.134Z,96390.94
2022-08-10T02:01:43.469Z,96393.56
2022-08-10T02:04:12.036Z,96392.81
2022-08-10T02:06:40.277Z,96388.38
2022-08-10T02:09:07.893Z,96395.38
2022-08-10T02:12:05.572Z,96384.91
2022-08-10T02:14:33.322Z,96385.88
2022-08-10T02:17:01.923Z,96397.28
2022-08-10T02:19:30.297Z,96389.47
2022-08-10T02:22:36.307Z,96392.94
2022-08-10T02:24:47.062Z,96394.75
2022-08-10T02:27:15.037Z,96393.09
2022-08-10T02:29:43.190Z,96394.75
2022-08-10T02:32:14.240Z,96392.25
2022-08-10T02:34:50.155Z,96389.59
2022-08-10T02:37:18.056Z,96391.28
2022-08-10T02:39:44.543Z,96393.09
2022-08-10T02:45:19.339Z,96394.03
2022-08-10T02:45:30.983Z,96395.84
2022-08-10T02:48:12.355Z,96395.00
2022-08-10T02:50:40.708Z,96389.72
2022-08-10T02:53:10.113Z,96393.34
2022-08-10T02:55:59.608Z,96392.38
2022-08-10T02:58:33.486Z,96393.34
2022-08-10T03:01:03.660Z,96395.97
2022-08-10T03:03:35.471Z,96392.50
2022-08-10T03:06:05.598Z,96393.47
2022-08-10T03:08:33.954Z,96399.59
2022-08-10T03:11:02.102Z,96387.31
2022-08-10T03:13:29.278Z,96396.94
2022-08-10T03:15:56.283Z,96389.97
2022-08-10T03:18:24.717Z,96398.63
2022-08-10T03:20:51.646Z,96399.72
2022-08-10T03:23:19.838Z,96405.81
2022-08-10T03:25:54.079Z,96398.88
2022-08-10T03:28:25.688Z,96407.75
2022-08-10T03:30:52.991Z,96397.19
2022-08-10T03:33:20.522Z,96402.47
2022-08-10T03:36:42.974Z,96397.19
2022-08-10T03:38:33.768Z,96407.75
2022-08-10T03:41:02.250Z,96411.38
2022-08-10T03:43:29.022Z,96406.09
2022-08-10T03:45:58.036Z,96406.09
2022-08-10T03:48:44.575Z,96406.09
2022-08-10T03:51:13.122Z,96408.00
2022-08-10T03:54:06.230Z,96419.41
2022-08-10T03:56:28.844Z,96409.66
2022-08-10T03:58:57.989Z,96414.13
2022-08-10T04:02:41.647Z,96408.00
2022-08-10T04:04:13.843Z,96414.25
2022-08-10T04:06:41.879Z,96416.91
2022-08-10T04:09:09.377Z,96419.41
2022-08-10T04:11:37.036Z,96421.31
2022-08-10T04:14:07.203Z,96425.78
2022-08-10T04:16:53.617Z,96422.19
2022-08-10T04:19:20.175Z,96425.78
2022-08-10T04:21:51.931Z,96424.09
2022-08-10T04:24:26.939Z,96430.22
2022-08-10T04:26:58.421Z,96433.81
2022-08-10T04:29:24.882Z,96429.38
2022-08-10T04:31:52.786Z,96434.66
2022-08-10T04:34:20.508Z,96432.97
2022-08-10T04:36:47.649Z,96438.25
2022-08-10T04:39:14.556Z,96435.75
2022-08-10T04:41:46.070Z,96432.97
2022-08-10T04:44:13.880Z,96433.09
2022-08-10T04:46:55.323Z,96429.63
2022-08-10T04:49:55.190Z,96441.03
2022-08-10T04:52:09.576Z,96430.59
2022-08-10T04:54:35.996Z,96440.19
2022-08-10T04:57:02.424Z,96433.22
2022-08-10T04:59:28.815Z,96434.91
2022-08-10T05:02:22.306Z,96434.91
2022-08-10T05:04:41.908Z,96443.78
2022-08-10T05:07:16.744Z,96435.16
2022-08-10T05:10:01.154Z,96450.75
2022-08-10T05:12:30.612Z,96443.78
2022-08-10T05:14:57.144Z,96439.47
2022-08-10T05:17:24.005Z,96442.97
2022-08-10T05:20:03.171Z,96444.06
2022-08-10T05:22:33.492Z,96446.69
2022-08-10T05:24:59.942Z,96445.72
2022-08-10T05:27:26.684Z,96457.13
2022-08-10T05:30:01.324Z,96448.47
2022-08-10T05:32:26.426Z,96450.31
2022-08-10T05:34:52.855Z,96453.63
2022-08-10T05:38:09.315Z,96452.94
2022-08-10T05:40:07.097Z,96451.25
2022-08-10T05:42:33.533Z,96460.88
2022-08-10T05:45:00.105Z,96462.66
2022-08-10T05:47:26.926Z,96465.41
2022-08-10T05:50:14.811Z,96467.06
2022-08-10T05:52:41.212Z,96456.53
2022-08-10T05:55:08.021Z,96460.13
2022-08-10T05:57:36.343Z,96460.13
2022-08-10T06:00:33.444Z,96465.41
2022-08-10T06:02:42.011Z,96462.78
2022-08-10T06:05:13.447Z,96467.94
2022-08-10T06:07:46.711Z,96463.50
2022-08-10T06:10:14.116Z,96467.94
2022-08-10T06:13:30.997Z,96467.06
2022-08-10T06:16:05.610Z,96459.78
2022-08-10T06:18:32.345Z,96464.50
2022-08-10T06:21:00.587Z,96469.03
2022-08-10T06:23:28.549Z,96469.78
2022-08-10T06:26:09.554Z,96464.22
2022-08-10T06:28:42.521Z,96458.25
2022-08-10T06:31:11.030Z,96476.94
2022-08-10T06:33:39.055Z,96470.00
2022-08-10T06:36:07.599Z,96474.19
2022-08-10T06:38:36.104Z,96470.47
2022-08-10T06:41:07.779Z,96470.59
2022-08-10T06:43:35.278Z,96473.34
2022-08-10T06:46:07.914Z,96474.06
2022-08-10T06:48:41.542Z,96474.78
2022-08-10T06:51:13.642Z,96477.41
2022-08-10T06:53:54.086Z,96479.81
2022-08-10T06:56:36.536Z,96472.63
2022-08-10T06:59:26.067Z,96472.38
2022-08-10T07:02:13.117Z,96472.81
2022-08-10T07:04:44.094Z,96472.69
2022-08-10T07:07:14.413Z,96477.88
2022-08-10T07:09:42.039Z,96478.84
2022-08-10T07:12:09.730Z,96476.06
2022-08-10T07:14:41.016Z,96472.69
2022-08-10T07:17:16.058Z,96475.72
2022-08-10T07:19:49.457Z,96471.19
2022-08-10T07:23:05.904Z,96471.19
2022-08-10T07:25:06.806Z,96470.22
2022-08-10T07:27:58.737Z,96470.69
2022-08-10T07:30:21.049Z,96474.31
2022-08-10T07:32:48.722Z,96475.13
2022-08-10T07:35:15.736Z,96474.06
2022-08-10T07:37:44.031Z,96473.34
2022-08-10T07:40:12.867Z,96481.50
2022-08-10T07:42:45.489Z,96477.91
2022-08-10T07:45:12.373Z,96478.59
2022-08-10T07:47:53.906Z,96483.88
2022-08-10T07:50:21.978Z,96478.84
2022-08-10T07:52:49.269Z,96472.63
2022-08-10T07:55:18.259Z,96469.84
2022-08-10T07:57:46.661Z,96472.38
2022-08-10T08:00:13.770Z,96474.88
2022-08-10T08:02:51.670Z,96486.03
2022-08-10T08:05:57.304Z,96479.06
2022-08-10T08:08:08.475Z,96473.78
2022-08-10T08:10:35.423Z,96474.06
2022-08-10T08:13:02.689Z,96472.81
2022-08-10T08:16:18.399Z,96483.38
2022-08-10T08:18:20.535Z,96484.34
2022-08-10T08:20:52.031Z,96474.66
2022-08-10T08:24:04.545Z,96477.16
2022-08-10T08:26:06.565Z,96483.13
2022-08-10T08:28:34.073Z,96479.53
2022-08-10T08:31:01.105Z,96478.59
2022-08-10T08:36:03.679Z,96471.38
2022-08-10T08:38:34.469Z,96468.63
2022-08-10T08:41:07.822Z,96471.13
2022-08-10T08:43:46.926Z,96459.59
2022-08-10T08:46:34.083Z,96462.25
2022-08-10T08:49:06.365Z,96465.59
2022-08-10T08:52:08.071Z,96465.59
2022-08-10T08:54:28.475Z,96471.59
2022-08-10T08:57:06.923Z,96463.66
2022-08-10T08:59:48.652Z,96463.53
2022-08-10T09:02:27.242Z,96474.97
2022-08-10T09:05:04.492Z,96466.06
2022-08-10T09:08:00.465Z,96469.53
2022-08-10T09:10:37.359Z,96459.81
2022-08-10T09:13:17.822Z,96465.09
2022-08-10T09:15:51.407Z,96465.94
2022-08-10T09:18:25.504Z,96454.53
2022-08-10T09:21:00.756Z,96463.31
2022-08-10T09:24:02.185Z,96461.47
2022-08-10T09:26:38.279Z,96448.28
2022-08-10T09:29:12.651Z,96450.91
2022-08-10T09:32:55.044Z,96450.91
2022-08-10T09:36:20.691Z,96457.06
2022-08-10T09:37:42.505Z,96459.59
2022-08-10T09:41:00.028Z,96450.00
2022-08-10T09:43:36.673Z,96448.19
2022-08-10T09:46:11.080Z,96449.03
2022-08-10T09:48:41.348Z,96448.06
2022-08-10T09:51:44.158Z,96445.41
2022-08-10T09:54:07.694Z,96447.09
2022-08-10T09:57:11.979Z,96442.66
2022-08-10T10:00:01.251Z,96435.59
2022-08-10T10:02:34.644Z,96439.91
2022-08-10T10:05:06.876Z,96439.91
2022-08-10T10:07:34.416Z,96436.28
2022-08-10T10:10:00.822Z,96434.63
2022-08-10T10:12:42.410Z,96441.56
2022-08-10T10:15:25.019Z,96436.28
2022-08-10T10:18:01.493Z,96444.09
2022-08-10T10:20:28.052Z,96437.94
2022-08-10T10:23:15.210Z,96436.28
2022-08-10T10:25:50.926Z,96436.28
2022-08-10T10:29:09.845Z,96429.22
2022-08-10T10:31:28.845Z,96427.38
2022-08-10T10:33:58.286Z,96428.34
2022-08-10T10:36:24.910Z,96428.22
2022-08-10T10:38:52.023Z,96415.88
2022-08-10T10:41:21.484Z,96423.81
2022-08-10T10:43:59.348Z,96412.38
2022-08-10T10:46:43.917Z,96415.88
2022-08-10T10:49:18.029Z,96414.06
2022-08-10T10:52:13.823Z,96409.63
2022-08-10T10:54:40.761Z,96412.13
2022-08-10T10:57:15.318Z,96409.34
2022-08-10T10:59:54.895Z,96405.75
2022-08-10T11:02:29.654Z,96400.47
2022-08-10T11:05:14.961Z,96407.44
2022-08-10T11:07:59.042Z,96401.19
2022-08-10T11:10:46.904Z,96398.53
2022-08-10T11:14:24.409Z,96405.47
2022-08-10T11:16:15.828Z,96396.63
2022-08-10T11:19:01.030Z,96405.22
2022-08-10T11:21:42.610Z,96398.03
2022-08-10T11:24:48.497Z,96392.75
2022-08-10T11:27:21.551Z,96399.56
2022-08-10T11:29:53.126Z,96391.66
2022-08-10T11:32:24.225Z,96381.91
2022-08-10T11:35:10.582Z,96388.88
2022-08-10T11:38:31.880Z,96385.28
2022-08-10T11:40:50.533Z,96380.81
2022-08-10T11:43:24.038Z,96383.31
2022-08-10T11:46:07.439Z,96385.03
2022-08-10T11:48:52.897Z,96374.44
2022-08-10T11:51:25.428Z,96372.50
2022-08-10T11:53:57.320Z,96376.81
2022-08-10T11:56:44.682Z,96360.81
2022-08-10T11:59:30.411Z,96368.50
2022-08-10T12:01:57.366Z,96372.00
2022-08-10T12:04:24.642Z,96368.38
2022-08-10T12:06:55.776Z,96361.16
2022-08-10T12:10:09.836Z,96362.00
2022-08-10T12:12:11.543Z,96362.00
2022-08-10T12:14:51.505Z,96358.38
2022-08-10T12:20:35.068Z,96357.41
2022-08-10T12:23:22.231Z,96351.97
2022-08-10T12:25:58.306Z,96347.56
2022-08-10T12:28:50.701Z,96345.72
2022-08-10T12:31:17.909Z,96350.06
2022-08-10T12:34:01.542Z,96350.06
2022-08-10T12:36:33.606Z,96341.16
2022-08-10T12:39:06.606Z,96342.81
2022-08-10T12:41:43.669Z,96335.88
2022-08-10T12:44:18.254Z,96335.88
2022-08-10T12:47:10.420Z,96331.44
2022-08-10T12:50:29.390Z,96328.63
2022-08-10T12:52:44.805Z,96328.63
2022-08-10T12:55:12.515Z,96321.44
2022-08-10T12:57:39.937Z,96321.44
2022-08-10T13:00:17.250Z,96320.56
2022-08-10T13:02:48.590Z,96316.13
2022-08-10T13:05:15.985Z,96319.47
2022-08-10T13:08:24.516Z,96323.09
2022-08-10T13:10:33.010Z,96323.81
2022-08-10T13:12:59.949Z,96319.22
2022-08-10T13:15:45.457Z,96324.50
2022-08-10T13:18:18.818Z,96313.94
2022-08-10T13:20:49.906Z,96312.00
2022-08-10T13:23:18.436Z,96306.72
2022-08-10T13:25:45.955Z,96303.09
2022-08-10T13:28:35.706Z,96294.19
2022-08-10T13:31:03.185Z,96290.56
2022-08-10T13:34:03.755Z,96282.50
2022-08-10T13:36:22.421Z,96283.34
2022-08-10T13:38:50.063Z,96271.94
2022-08-10T13:41:17.131Z,96276.09
2022-08-10T13:43:54.871Z,96272.53
2022-08-10T13:46:23.393Z,96268.91
2022-08-10T13:48:53.538Z,96259.13
2022-08-10T13:51:53.886Z,96256.38
2022-08-10T13:54:11.739Z,96261.66
2022-08-10T13:56:41.807Z,96255.41
2022-08-10T13:59:10.095Z,96248.31
2022-08-10T14:01:37.750Z,96249.16
2022-08-10T14:04:06.722Z,96249.16
2022-08-10T14:06:34.141Z,96236.63
2022-08-10T14:09:06.075Z,96238.28
2022-08-10T14:11:33.207Z,96235.50
2022-08-10T14:14:01.665Z,96239.72
2022-08-10T14:16:29.030Z,96240.44
2022-08-10T14:18:58.033Z,96241.09
2022-08-10T14:21:24.606Z,96232.22
2022-08-10T14:23:52.687Z,96232.91
2022-08-10T14:26:28.781Z,96230.28
2022-08-10T14:28:58.233Z,96230.97
2022-08-10T14:31:28.958Z,96223.03
2022-08-10T14:33:57.350Z,96220.25
2022-08-10T14:36:36.712Z,96221.09
2022-08-10T14:39:04.114Z,96213.03
2022-08-10T14:42:01.131Z,96213.88
2022-08-10T14:44:19.440Z,96210.25
2022-08-10T14:46:51.694Z,96213.56
2022-08-10T14:49:25.673Z,96207.47
2022-08-10T14:51:57.797Z,96201.06
2022-08-10T14:54:29.540Z,96209.97
2022-08-10T14:56:57.182Z,96206.34
2022-08-10T15:00:20.780Z,96197.44
2022-08-10T15:02:39.982Z,96201.75
2022-08-10T15:05:03.409Z,96195.63
2022-08-10T15:07:36.390Z,96200.06
2022-08-10T15:10:04.689Z,96191.16
2022-08-10T15:12:32.787Z,96192.84
2022-08-10T15:15:01.067Z,96191.75
2022-08-10T15:17:35.135Z,96187.97
2022-08-10T15:20:14.130Z,96183.38
2022-08-10T15:22:45.424Z,96184.06
2022-08-10T15:25:18.569Z,96185.75
2022-08-10T15:27:53.943Z,96184.63
2022-08-10T15:30:23.776Z,96180.19
2022-08-10T15:33:15.836Z,96184.47
2022-08-10T15:36:07.914Z,96181.13
2022-08-10T15:38:36.640Z,96181.84
2022-08-10T15:41:04.161Z,96176.69
2022-08-10T15:43:44.563Z,96178.47
2022-08-10T15:46:30.029Z,96173.19
2022-08-10T15:48:59.897Z,96171.53
2022-08-10T15:51:53.494Z,96165.41
2022-08-10T15:54:33.622Z,96158.44
2022-08-10T15:57:02.710Z,96162.91
2022-08-10T15:59:44.790Z,96158.44
2022-08-10T16:02:17.143Z,96168.19
2022-08-10T16:04:44.175Z,96157.63
2022-08-10T16:07:16.725Z,96159.28
2022-08-10T16:10:22.802Z,96162.91
2022-08-10T16:13:50.932Z,96155.94
2022-08-10T16:15:53.301Z,96165.69
2022-08-10T16:18:24.092Z,96149.97
2022-08-10T16:20:55.943Z,96153.72
2022-08-10T16:23:24.572Z,96148.56
2022-08-10T16:25:59.357Z,96159.28
2022-08-10T16:28:32.756Z,96155.97
2022-08-10T16:30:59.563Z,96148.16
2022-08-10T16:33:53.484Z,96157.88
2022-08-10T16:36:15.971Z,96157.06
2022-08-10T16:38:43.796Z,96149.28
2022-08-10T16:41:52.066Z,96151.78
2022-08-10T16:43:59.230Z,96155.38
2022-08-10T16:46:26.159Z,96150.22
2022-08-10T16:48:53.280Z,96150.22
2022-08-10T16:51:21.585Z,96152.06
2022-08-10T16:53:51.516Z,96160.00
2022-08-10T16:56:24.365Z,96154.00
2022-08-10T16:58:54.156Z,96153.84
2022-08-10T17:01:22.935Z,96150.38
2022-08-10T17:04:05.556Z,96143.41
2022-08-10T17:06:37.776Z,96142.59
2022-08-10T17:09:05.753Z,96140.09
2022-08-10T17:11:37.504Z,96146.19
2022-08-10T17:14:06.973Z,96142.72
2022-08-10T17:16:54.350Z,96142.03
2022-08-10T17:19:22.474Z,96147.31
2022-08-10T17:21:52.321Z,96140.34
2022-08-10T17:24:21.322Z,96139.53
2022-08-10T17:26:48.482Z,96143.97
2022-08-10T17:29:57.544Z,96147.59
2022-08-10T17:32:27.739Z,96141.47
2022-08-10T17:34:57.652Z,96145.91
2022-08-10T17:37:25.784Z,96144.25
2022-08-10T17:39:56.407Z,96149.53
2022-08-10T17:42:25.209Z,96149.53
2022-08-10T17:44:52.958Z,96147.88
2022-08-10T17:47:20.563Z,96156.78
2022-08-10T17:49:47.111Z,96154.16
2022-08-10T17:52:18.687Z,96150.66
2022-08-10T17:54:47.060Z,96149.00
2022-08-10T17:57:18.804Z,96148.16
2022-08-10T17:59:46.183Z,96154.28
2022-08-10T18:02:21.537Z,96153.44
2022-08-10T18:04:50.102Z,96155.38
2022-08-10T18:07:19.420Z,96154.41
2022-08-10T18:09:50.418Z,96160.66
2022-08-10T18:12:19.517Z,96154.50
2022-08-10T18:14:50.107Z,96161.59
2022-08-10T18:17:24.225Z,96158.97
2022-08-10T18:19:56.730Z,96157.28
2022-08-10T18:22:23.759Z,96162.59
2022-08-10T18:24:50.679Z,96160.91
2022-08-10T18:27:18.261Z,96164.53
2022-08-10T18:29:47.898Z,96163.69
2022-08-10T18:32:15.163Z,96163.69
2022-08-10T18:34:43.134Z,96169.84
2022-08-10T18:37:19.539Z,96163.81
2022-08-10T18:39:47.141Z,96167.44
2022-08-10T18:42:16.625Z,96169.25
2022-08-10T18:44:53.682Z,96170.09
2022-08-10T18:47:25.640Z,96174.69
2022-08-10T18:50:00.850Z,96174.69
2022-08-10T18:52:29.732Z,96177.34
2022-08-10T18:55:02.421Z,96180.94
2022-08-10T18:57:47.266Z,96175.66
2022-08-10T19:00:15.505Z,96175.78
2022-08-10T19:03:01.083Z,96180.00
2022-08-10T19:05:48.441Z,96175.09
2022-08-10T19:08:31.106Z,96176.75
2022-08-10T19:11:09.016Z,96177.59
2022-08-10T19:13:41.250Z,96180.38
2022-08-10T19:16:35.440Z,96180.53
2022-08-10T19:19:05.136Z,96177.03
2022-08-10T19:22:02.097Z,96177.03
2022-08-10T19:24:50.782Z,96179.66
2022-08-10T19:27:42.048Z,96185.13
2022-08-10T19:30:14.345Z,96185.13
2022-08-10T19:32:43.569Z,96183.44
2022-08-10T19:35:18.795Z,96182.59
2022-08-10T19:38:04.012Z,96188.72
2022-08-10T19:40:44.566Z,96191.34
2022-08-10T19:43:59.208Z,96194.97
2022-08-10T19:46:11.243Z,96190.66
2022-08-10T19:48:43.762Z,96192.34
2022-08-10T19:51:24.563Z,96194.28
2022-08-10T19:53:56.532Z,96194.28
2022-08-10T19:56:35.199Z,96195.97
2022-08-10T20:00:14.931Z,96208.47
2022-08-10T20:02:15.837Z,96203.16
2022-08-10T20:04:52.787Z,96203.16
2022-08-10T20:07:23.406Z,96201.50
2022-08-10T20:10:03.795Z,96205.13
2022-08-10T20:12:48.904Z,96205.13
2022-08-10T20:15:27.826Z,96192.03
2022-08-10T20:17:56.672Z,96208.75
2022-08-10T20:20:32.733Z,96198.19
2022-08-10T20:23:05.070Z,96201.78
2022-08-10T20:25:31.876Z,96201.78
2022-08-10T20:28:01.074Z,96201.78
2022-08-10T20:30:35.663Z,96200.09
2022-08-10T20:33:20.552Z,96203.47
2022-08-10T20:35:49.622Z,96201.94
2022-08-10T20:38:27.303Z,96205.38
2022-08-10T20:41:08.579Z,96198.44
2022-08-10T20:43:39.870Z,96200.22
2022-08-10T20:46:24.755Z,96197.59
2022-08-10T20:49:04.581Z,96202.06
2022-08-10T20:51:57.344Z,96202.06
2022-08-10T20:54:38.205Z,96202.06
2022-08-10T20:57:55.922Z,96188.97
2022-08-10T21:00:10.776Z,96189.13
2022-08-10T21:02:47.938Z,96188.13
2022-08-10T21:05:18.414Z,96191.63
2022-08-10T21:08:01.571Z,96193.41
2022-08-10T21:10:34.828Z,96203.16
2022-08-10T21:13:01.180Z,96197.03
2022-08-10T21:15:27.534Z,96197.03
2022-08-10T21:18:07.269Z,96195.38
2022-08-10T21:20:55.800Z,96197.03
2022-08-10T21:23:30.321Z,96204.13
2022-08-10T21:26:09.179Z,96205.94
2022-08-10T21:28:54.479Z,96198.97
2022-08-10T21:31:30.787Z,96195.50
2022-08-10T21:34:02.904Z,96198.16
2022-08-10T21:36:35.662Z,96197.31
2022-08-10T21:39:10.201Z,96199.94
2022-08-10T21:42:03.460Z,96204.25
2022-08-10T21:44:51.360Z,96206.22
2022-08-10T21:48:05.053Z,96211.50
2022-08-10T21:50:55.540Z,96211.50
2022-08-10T21:53:45.240Z,96214.13
2022-08-10T21:56:42.813Z,96217.75
2022-08-10T21:59:39.980Z,96215.13
2022-08-10T22:02:28.343Z,96218.72
2022-08-10T22:05:17.781Z,96224.84
2022-08-10T22:08:07.712Z,96227.59
2022-08-10T22:11:01.053Z,96224.00
2022-08-10T22:13:46.768Z,96232.88
2022-08-10T22:16:40.587Z,96238.19
2022-08-10T22:19:25.542Z,96239.16
2022-08-10T22:22:27.771Z,96245.41
2022-08-10T22:25:22.317Z,96244.44
2022-08-10T22:28:12.492Z,96240.13
2022-08-10T22:31:30.094Z,96244.56
2022-08-10T22:34:17.907Z,96240.13
2022-08-10T22:37:08.982Z,96238.47
2022-08-10T22:40:13.937Z,96241.25
2022-08-10T22:43:10.769Z,96247.34
2022-08-10T22:45:57.707Z,96245.66
2022-08-10T22:51:11.482Z,96249.28
2022-08-10T22:54:03.505Z,96259.84
2022-08-10T22:56:48.882Z,96254.56
2022-08-10T22:59:26.351Z,96251.94
2022-08-10T23:02:08.478Z,96259.00
2022-08-10T23:04:38.345Z,96261.66
2022-08-10T23:07:11.837Z,96258.19
2022-08-10T23:09:38.514Z,96246.78
2022-08-10T23:12:25.477Z,96252.91
2022-08-10T23:15:13.063Z,96251.22
2022-08-10T23:18:01.903Z,96254.84
2022-08-10T23:20:29.984Z,96252.19
2022-08-10T23:25:56.239Z,96249.53
2022-08-10T23:28:38.671Z,96256.63
2022-08-10T23:31:12.428Z,96253.16
2022-08-10T23:33:39.949Z,96253.16
2022-08-10T23:36:34.351Z,96253.97
2022-08-10T23:39:27.058Z,96248.84
2022-08-10T23:41:42.428Z,96250.66
2022-08-10T23:44:13.992Z,96250.66
2022-08-10T23:46:47.957Z,96256.78
2022-08-10T23:49:14.427Z,96251.50
2022-08-10T23:51:55.784Z,96249.81
2022-08-10T23:54:23.977Z,96249.81
2022-08-10T23:56:55.523Z,96247.31
2022-08-10T23:59:23.766Z,96246.47
